createdAt,value
2023-02-19T00:00:19.732Z,0
2023-02-19T00:05:19.593Z,0
2023-02-19T00:10:19.613Z,0
2023-02-19T00:15:19.621Z,0
2023-02-19T00:20:19.672Z,0
2023-02-19T00:25:19.656Z,0
2023-02-19T00:30:16.611Z,0
2023-02-19T00:35:16.595Z,0
2023-02-19T00:40:19.698Z,0
2023-02-19T00:45:19.694Z,0
2023-02-19T00:50:19.731Z,0
2023-02-19T00:55:19.757Z,0
2023-02-19T01:00:19.711Z,0
2023-02-19T01:05:19.682Z,1
2023-02-19T01:10:19.691Z,1
2023-02-19T01:15:19.708Z,0
2023-02-19T01:20:19.744Z,0
2023-02-19T01:25:16.769Z,0
2023-02-19T01:30:16.685Z,0
2023-02-19T01:35:19.837Z,0
2023-02-19T01:40:19.792Z,0
2023-02-19T01:45:19.883Z,0
2023-02-19T01:50:19.807Z,0
2023-02-19T01:55:19.908Z,0
2023-02-19T02:00:19.894Z,0
2023-02-19T02:05:19.832Z,0
2023-02-19T02:10:19.849Z,0
2023-02-19T02:15:19.903Z,0
2023-02-19T02:20:16.957Z,0
2023-02-19T02:25:16.795Z,0
2023-02-19T02:30:20.147Z,0
2023-02-19T02:35:19.963Z,0
2023-02-19T02:40:19.954Z,0
2023-02-19T02:45:19.997Z,0
2023-02-19T02:50:19.863Z,0
2023-02-19T02:55:20.046Z,0
2023-02-19T03:00:19.963Z,0
2023-02-19T03:05:20.112Z,1
2023-02-19T03:10:20.039Z,0
2023-02-19T03:15:16.880Z,0
2023-02-19T03:20:20.153Z,0
2023-02-19T03:25:20.104Z,0
2023-02-19T03:30:20.363Z,1
2023-02-19T03:35:20.063Z,1
2023-02-19T03:40:20.152Z,2
2023-02-19T03:45:20.064Z,2
2023-02-19T03:50:20.120Z,0
2023-02-19T03:55:20.250Z,1
2023-02-19T04:00:20.139Z,1
2023-02-19T04:05:17.097Z,0
2023-02-19T04:10:17.043Z,1
2023-02-19T04:15:20.254Z,0
2023-02-19T04:20:20.208Z,1
2023-02-19T04:25:20.235Z,1
2023-02-19T04:30:20.337Z,0
2023-02-19T04:35:20.180Z,0
2023-02-19T04:40:20.276Z,0
2023-02-19T04:45:20.301Z,0
2023-02-19T04:50:20.310Z,0
2023-02-19T04:55:20.234Z,0
2023-02-19T05:00:19.564Z,0
2023-02-19T05:05:19.631Z,0
2023-02-19T05:10:19.556Z,0
2023-02-19T05:15:16.379Z,0
2023-02-19T05:20:16.606Z,0
2023-02-19T05:25:19.709Z,0
2023-02-19T05:30:19.690Z,0
2023-02-19T05:35:19.640Z,0
2023-02-19T05:40:19.712Z,0
2023-02-19T05:45:19.658Z,0
2023-02-19T05:50:19.654Z,0
2023-02-19T05:55:19.657Z,0
2023-02-19T06:00:19.710Z,0
2023-02-19T06:05:19.671Z,0
2023-02-19T06:10:16.594Z,0
2023-02-19T06:15:19.707Z,0
2023-02-19T06:20:19.835Z,0
2023-02-19T06:25:19.770Z,0
2023-02-19T06:30:19.830Z,0
2023-02-19T06:35:19.814Z,0
2023-02-19T06:40:19.791Z,0
2023-02-19T06:45:19.893Z,1
2023-02-19T06:50:19.963Z,0
2023-02-19T06:55:19.815Z,1
2023-02-19T07:00:16.755Z,1
2023-02-19T07:05:16.740Z,0
2023-02-19T07:10:19.970Z,0
2023-02-19T07:15:19.892Z,0
2023-02-19T07:20:19.824Z,0
2023-02-19T07:25:19.819Z,0
2023-02-19T07:30:20.035Z,0
2023-02-19T07:35:19.947Z,0
2023-02-19T07:40:19.905Z,0
2023-02-19T07:45:20.063Z,0
2023-02-19T07:50:19.968Z,0
2023-02-19T07:55:16.875Z,0
2023-02-19T08:00:16.897Z,0
2023-02-19T08:05:20.023Z,0
2023-02-19T08:10:19.965Z,0
2023-02-19T08:15:22.393Z,0
2023-02-19T08:20:20.145Z,0
2023-02-19T08:25:20.138Z,0
2023-02-19T08:30:20.194Z,0
2023-02-19T08:35:20.134Z,0
2023-02-19T08:40:20.074Z,0
2023-02-19T08:45:20.117Z,0
2023-02-19T08:50:17.053Z,0
2023-02-19T08:55:17.302Z,0
2023-02-19T09:00:20.144Z,0
2023-02-19T09:05:20.146Z,0
2023-02-19T09:10:20.047Z,0
2023-02-19T09:15:20.208Z,0
2023-02-19T09:20:20.174Z,0
2023-02-19T09:25:20.425Z,0
2023-02-19T09:30:20.188Z,0
2023-02-19T09:35:20.177Z,0
2023-02-19T09:40:17.146Z,0
2023-02-19T09:45:17.165Z,0
2023-02-19T09:50:20.396Z,0
2023-02-19T09:55:20.223Z,0
2023-02-19T10:00:20.451Z,0
2023-02-19T10:05:20.392Z,0
2023-02-19T10:10:20.372Z,0
2023-02-19T10:15:20.285Z,0
2023-02-19T10:20:20.286Z,0
2023-02-19T10:25:20.334Z,0
2023-02-19T10:30:20.427Z,0
2023-02-19T10:35:17.325Z,0
2023-02-19T10:40:17.292Z,0
2023-02-19T10:45:20.542Z,0
2023-02-19T10:50:20.512Z,0
2023-02-19T10:55:20.460Z,0
2023-02-19T11:00:20.408Z,0
2023-02-19T11:05:20.535Z,0
2023-02-19T11:10:20.445Z,0
2023-02-19T11:15:20.603Z,0
2023-02-19T11:20:20.531Z,0
2023-02-19T11:25:20.495Z,0
2023-02-19T11:30:17.444Z,0
2023-02-19T11:35:17.611Z,1
2023-02-19T11:40:18.800Z,2
2023-02-19T11:45:18.626Z,0
2023-02-19T11:50:18.628Z,0
2023-02-19T11:55:18.675Z,0
2023-02-19T12:00:18.599Z,0
2023-02-19T12:05:18.736Z,0
2023-02-19T12:10:15.582Z,0
2023-02-19T12:15:18.807Z,0
2023-02-19T12:20:18.722Z,0
2023-02-19T12:25:18.725Z,0
2023-02-19T12:30:18.825Z,0
2023-02-19T12:35:18.757Z,0
2023-02-19T12:40:18.759Z,0
2023-02-19T12:45:18.955Z,0
2023-02-19T12:50:18.848Z,0
2023-02-19T12:55:18.722Z,0
2023-02-19T13:00:15.722Z,0
2023-02-19T13:05:15.702Z,1
2023-02-19T13:10:18.871Z,1
2023-02-19T13:15:18.864Z,0
2023-02-19T13:20:18.859Z,0
2023-02-19T13:25:18.942Z,0
2023-02-19T13:30:18.956Z,0
2023-02-19T13:35:18.897Z,1
2023-02-19T13:40:18.901Z,1
2023-02-19T13:45:18.852Z,0
2023-02-19T13:50:18.959Z,1
2023-02-19T13:55:15.902Z,0
2023-02-19T14:00:15.846Z,1
2023-02-19T14:05:19.203Z,0
2023-02-19T14:10:18.966Z,0
2023-02-19T14:15:18.962Z,0
2023-02-19T14:20:19.135Z,0
2023-02-19T14:25:19.179Z,1
2023-02-19T14:30:19.108Z,1
2023-02-19T14:35:19.065Z,1
2023-02-19T14:40:19.037Z,1
2023-02-19T14:45:19.069Z,1
2023-02-19T14:50:15.932Z,1
2023-02-19T14:55:19.106Z,0
2023-02-19T15:00:19.166Z,1
2023-02-19T15:05:19.100Z,1
2023-02-19T15:10:19.335Z,2
2023-02-19T15:15:19.542Z,1
2023-02-19T15:20:19.184Z,1
2023-02-19T15:25:19.141Z,2
2023-02-19T15:30:19.262Z,1
2023-02-19T15:35:19.279Z,1
2023-02-19T15:40:16.106Z,1
2023-02-19T15:45:15.979Z,1
2023-02-19T15:50:19.181Z,1
2023-02-19T15:55:19.249Z,1
2023-02-19T16:00:19.240Z,1
2023-02-19T16:05:19.186Z,1
2023-02-19T16:10:19.210Z,1
2023-02-19T16:15:19.201Z,2
2023-02-19T16:20:19.235Z,1
2023-02-19T16:25:19.312Z,0
2023-02-19T16:30:19.298Z,1
2023-02-19T16:35:16.226Z,1
2023-02-19T16:40:19.233Z,3
2023-02-19T16:45:19.586Z,2
2023-02-19T16:50:19.343Z,4
2023-02-19T16:55:19.381Z,2
2023-02-19T17:00:19.371Z,5
2023-02-19T17:05:19.407Z,3
2023-02-19T17:10:19.453Z,3
2023-02-19T17:15:19.423Z,7
2023-02-19T17:20:19.507Z,3
2023-02-19T17:25:16.284Z,5
2023-02-19T17:30:16.268Z,3
2023-02-19T17:35:19.458Z,4
2023-02-19T17:40:31.750Z,5
2023-02-19T17:45:19.395Z,4
2023-02-19T17:50:19.454Z,3
2023-02-19T17:55:19.486Z,6
2023-02-19T18:00:19.494Z,6
2023-02-19T18:05:19.483Z,5
2023-02-19T18:10:19.479Z,5
2023-02-19T18:15:19.553Z,4
2023-02-19T18:20:16.407Z,5
2023-02-19T18:25:16.331Z,8
2023-02-19T18:30:19.859Z,6
2023-02-19T18:35:19.446Z,7
2023-02-19T18:40:19.533Z,5
2023-02-19T18:45:19.632Z,3
2023-02-19T18:50:19.593Z,5
2023-02-19T18:55:19.643Z,5
2023-02-19T19:00:19.617Z,5
2023-02-19T19:05:19.706Z,3
2023-02-19T19:10:16.501Z,3
2023-02-19T19:15:18.270Z,6
2023-02-19T19:20:19.648Z,3
2023-02-19T19:25:19.653Z,6
2023-02-19T19:30:19.703Z,6
2023-02-19T19:35:19.710Z,6
2023-02-19T19:40:19.668Z,6
2023-02-19T19:45:19.716Z,7
2023-02-19T19:50:19.670Z,6
2023-02-19T19:55:19.824Z,3
2023-02-19T20:00:19.744Z,5
2023-02-19T20:05:16.543Z,4
2023-02-19T20:10:16.625Z,4
2023-02-19T20:15:19.725Z,2
2023-02-19T20:20:19.707Z,4
2023-02-19T20:25:19.709Z,4
2023-02-19T20:30:19.831Z,4
2023-02-19T20:35:19.737Z,3
2023-02-19T20:40:19.723Z,6
2023-02-19T20:45:19.665Z,4
2023-02-19T20:50:19.933Z,3
2023-02-19T20:55:19.772Z,3
2023-02-19T21:00:16.695Z,3
2023-02-19T21:05:19.881Z,4
2023-02-19T21:10:19.824Z,2
2023-02-19T21:15:19.753Z,3
2023-02-19T21:20:19.806Z,2
2023-02-19T21:25:19.877Z,3
2023-02-19T21:30:19.831Z,3
2023-02-19T21:35:19.841Z,3
2023-02-19T21:40:19.893Z,2
2023-02-19T21:45:19.912Z,3
2023-02-19T21:50:16.797Z,4
2023-02-19T21:55:16.814Z,3
2023-02-19T22:00:20.079Z,2
2023-02-19T22:05:19.936Z,2
2023-02-19T22:10:19.861Z,1
2023-02-19T22:15:20.268Z,1
2023-02-19T22:20:19.934Z,3
2023-02-19T22:25:19.932Z,1
2023-02-19T22:30:20.068Z,1
2023-02-19T22:35:20.077Z,1
2023-02-19T22:40:20.016Z,1
2023-02-19T22:45:16.903Z,3
2023-02-19T22:50:16.981Z,2
2023-02-19T22:55:20.064Z,3
2023-02-19T23:00:20.096Z,3
2023-02-19T23:05:20.059Z,3
2023-02-19T23:10:20.111Z,4
2023-02-19T23:15:20.011Z,4
2023-02-19T23:20:20.053Z,3
2023-02-19T23:25:20.058Z,2
2023-02-19T23:30:20.090Z,3
2023-02-19T23:35:20.093Z,3
2023-02-19T23:40:17.042Z,3
2023-02-19T23:45:20.066Z,3
2023-02-19T23:50:20.148Z,3
2023-02-19T23:55:20.145Z,5
